Time;durP1;ratioP1;P1;durP2;ratioP2;P2;SDS_P1;SDS_P2;PMS_P1;PMS_P2;Temp;Humidity;BMP_temperature;BMP_pressure;BME280_temperature;BME280_humidity;BME280_pressure;Samples;Min_cycle;Max_cycle;Signal;HPM_P1;HPM_P2
2022/09/13 00:02:54;;;;;;;2.55;0.90;;;24.60;49.30;;;;;;6299564;28;20037;-87
2022/09/13 00:05:55;;;;;;;1.45;1.10;;;24.60;49.50;;;;;;6279898;28;20058;-86
2022/09/13 00:08:57;;;;;;;5.15;1.42;;;24.50;49.50;;;;;;6299056;28;20037;-86
2022/09/13 00:11:58;;;;;;;1.55;0.95;;;24.50;49.60;;;;;;6299748;28;20079;-85
2022/09/13 00:14:59;;;;;;;10.20;1.35;;;24.40;49.60;;;;;;6301121;28;20037;-86
2022/09/13 00:18:00;;;;;;;1.73;0.98;;;24.40;49.70;;;;;;6306581;28;20036;-86
2022/09/13 00:21:10;;;;;;;5.72;1.00;;;24.40;49.70;;;;;;6298549;28;20489;-86
2022/09/13 00:24:11;;;;;;;3.67;0.88;;;24.40;49.70;;;;;;6261320;28;20045;-86
2022/09/13 00:27:12;;;;;;;1.45;0.93;;;24.40;49.60;;;;;;6264234;28;20090;-85
2022/09/13 00:30:14;;;;;;;3.97;1.00;;;24.40;49.60;;;;;;6262527;28;20038;-85
2022/09/13 00:33:15;;;;;;;1.00;0.80;;;24.40;49.60;;;;;;6255892;28;20072;-87
2022/09/13 00:36:16;;;;;;;0.85;0.80;;;24.40;49.60;;;;;;6254882;28;20036;-85
2022/09/13 00:39:17;;;;;;;1.60;0.90;;;24.40;49.50;;;;;;6264618;28;20048;-85
2022/09/13 00:42:25;;;;;;;0.77;0.75;;;24.40;49.40;;;;;;6273892;28;20021;-86
2022/09/13 00:45:27;;;;;;;1.65;0.80;;;24.40;49.40;;;;;;6274914;28;20040;-85
2022/09/13 00:48:28;;;;;;;5.13;0.90;;;24.40;49.30;;;;;;6261821;28;20029;-85
2022/09/13 00:51:30;;;;;;;4.45;0.90;;;24.40;49.20;;;;;;6280261;28;20024;-86
2022/09/13 00:54:39;;;;;;;1.88;1.10;;;24.40;49.10;;;;;;6299013;28;20086;-87
2022/09/13 00:57:41;;;;;;;3.33;1.10;;;24.30;49.00;;;;;;6287953;28;20025;-86
2022/09/13 01:00:45;;;;;;;4.50;1.00;;;24.30;49.00;;;;;;6300056;28;20043;-86
2022/09/13 01:03:47;;;;;;;1.10;0.90;;;24.30;49.10;;;;;;6274066;28;20393;-86
2022/09/13 01:07:10;;;;;;;2.17;0.80;;;24.30;49.20;;;;;;6280061;28;20048;-86
2022/09/13 01:10:11;;;;;;;4.63;0.90;;;24.30;49.30;;;;;;6268607;28;20033;-87
2022/09/13 01:13:17;;;;;;;4.85;0.93;;;24.30;49.20;;;;;;6299061;28;20029;-86
2022/09/13 01:16:19;;;;;;;1.42;0.95;;;24.30;49.30;;;;;;6296774;28;20072;-85
2022/09/13 01:19:20;;;;;;;1.50;0.90;;;24.20;49.20;;;;;;6290418;28;20049;-85
2022/09/13 01:23:05;;;;;;;5.38;1.13;;;24.20;49.30;;;;;;6277267;28;20033;-87
2022/09/13 01:26:33;;;;;;;2.35;1.23;;;24.20;49.60;;;;;;6282819;28;20052;-87
2022/09/13 01:30:07;;;;;;;1.85;1.20;;;24.20;50.20;;;;;;6288761;28;20466;-87
2022/09/13 01:33:32;;;;;;;1.55;1.10;;;24.10;50.70;;;;;;6303127;28;20145;-86
2022/09/13 01:36:57;;;;;;;4.93;1.13;;;24.00;51.50;;;;;;6284112;28;20521;-86
2022/09/13 01:40:35;;;;;;;2.33;1.38;;;23.90;51.60;;;;;;6288263;28;20542;-85
2022/09/13 01:43:54;;;;;;;2.85;0.90;;;23.80;52.20;;;;;;6306168;28;20351;-86
2022/09/13 01:47:07;;;;;;;3.35;1.10;;;23.80;52.60;;;;;;6313275;28;20214;-87
2022/09/13 01:50:36;;;;;;;5.25;1.65;;;23.60;52.70;;;;;;6305390;28;20052;-87
2022/09/13 01:54:23;;;;;;;13.88;1.33;;;23.60;52.90;;;;;;6299990;28;20043;-86
2022/09/13 01:57:25;;;;;;;1.08;0.95;;;23.50;53.00;;;;;;6259301;28;20124;-86
2022/09/13 02:00:27;;;;;;;3.00;1.20;;;23.40;53.00;;;;;;6270224;28;20377;-86
2022/09/13 02:03:36;;;;;;;2.78;0.90;;;23.40;53.10;;;;;;6281653;28;20105;-86
2022/09/13 02:06:56;;;;;;;2.35;1.20;;;23.40;53.30;;;;;;6283762;28;20127;-86
2022/09/13 02:10:07;;;;;;;3.63;1.42;;;23.30;53.40;;;;;;6275281;28;20167;-86
2022/09/13 02:13:17;;;;;;;2.17;1.17;;;23.30;53.60;;;;;;6278545;28;20048;-86
2022/09/13 02:16:27;;;;;;;4.63;1.38;;;23.20;53.70;;;;;;6270370;28;20029;-87
2022/09/13 02:19:41;;;;;;;3.17;1.10;;;23.10;53.90;;;;;;6265318;28;20048;-86
2022/09/13 02:22:47;;;;;;;5.75;1.45;;;23.00;53.90;;;;;;6272822;28;20472;-86
2022/09/13 02:25:52;;;;;;;2.20;1.05;;;23.00;54.10;;;;;;6280137;28;20102;-86
2022/09/13 02:28:56;;;;;;;3.75;1.02;;;22.90;54.30;;;;;;6271403;28;20036;-86
2022/09/13 02:32:01;;;;;;;4.88;1.40;;;22.90;54.50;;;;;;6258168;28;20094;-87
2022/09/13 02:35:31;;;;;;;2.25;0.95;;;22.90;54.60;;;;;;6291047;28;20051;-87
2022/09/13 02:38:54;;;;;;;1.45;1.00;;;22.80;54.80;;;;;;6295912;28;20036;-86
2022/09/13 02:42:30;;;;;;;7.63;1.30;;;22.80;54.90;;;;;;6265796;28;20367;-86
2022/09/13 02:45:41;;;;;;;1.45;1.10;;;22.70;55.10;;;;;;6272289;28;20063;-86
2022/09/13 02:49:06;;;;;;;6.00;0.95;;;22.60;55.10;;;;;;6289194;28;20525;-86
2022/09/13 02:52:38;;;;;;;1.40;0.95;;;22.60;55.10;;;;;;6273729;28;20345;-87
2022/09/13 02:55:45;;;;;;;4.85;1.45;;;22.60;55.20;;;;;;6286849;28;20393;-86
2022/09/13 02:58:51;;;;;;;4.20;1.17;;;22.60;55.30;;;;;;6288701;28;20104;-87
2022/09/13 03:02:02;;;;;;;3.28;1.45;;;22.50;55.30;;;;;;6282724;28;20062;-86
2022/09/13 03:05:03;;;;;;;2.38;1.10;;;22.50;55.40;;;;;;6251685;28;20094;-85
2022/09/13 03:08:09;;;;;;;2.55;1.00;;;22.50;55.50;;;;;;6259143;28;20033;-87
2022/09/13 03:11:10;;;;;;;4.70;1.13;;;22.50;55.50;;;;;;6255460;28;20041;-87
2022/09/13 03:14:17;;;;;;;2.58;1.00;;;22.50;55.40;;;;;;6274248;28;20040;-87
2022/09/13 03:17:57;;;;;;;1.83;1.27;;;22.50;55.40;;;;;;6299113;28;20033;-86
2022/09/13 03:21:13;;;;;;;4.28;1.00;;;22.50;55.40;;;;;;6295471;28;20051;-87
2022/09/13 03:24:36;;;;;;;4.72;1.00;;;22.50;55.30;;;;;;6290582;28;20043;-86
2022/09/13 03:28:10;;;;;;;2.50;1.20;;;22.50;55.30;;;;;;6257167;28;20502;-87
2022/09/13 03:31:26;;;;;;;2.47;1.02;;;22.30;55.20;;;;;;6240747;28;20485;-86
2022/09/13 03:34:34;;;;;;;3.72;1.40;;;22.50;55.30;;;;;;6230703;28;20036;-86
2022/09/13 03:37:56;;;;;;;4.30;0.90;;;22.50;55.30;;;;;;6260512;28;20033;-86
2022/09/13 03:41:06;;;;;;;6.82;1.20;;;22.50;55.40;;;;;;6266622;28;20072;-87
2022/09/13 03:44:13;;;;;;;1.05;0.95;;;22.40;55.40;;;;;;6284751;28;20480;-87
2022/09/13 03:47:16;;;;;;;3.17;1.20;;;22.40;55.50;;;;;;6291248;28;20033;-88
2022/09/13 03:50:20;;;;;;;4.45;1.20;;;22.40;55.50;;;;;;6262808;28;20029;-86
2022/09/13 03:53:29;;;;;;;1.80;1.50;;;22.40;55.50;;;;;;6294888;28;20032;-86
2022/09/13 03:56:30;;;;;;;2.38;1.25;;;22.40;55.40;;;;;;6273675;28;20029;-86
2022/09/13 03:59:31;;;;;;;4.15;1.40;;;22.40;55.40;;;;;;6254308;28;20061;-86
2022/09/13 04:02:32;;;;;;;3.83;1.45;;;22.40;55.30;;;;;;6279164;28;20128;-86
2022/09/13 04:05:33;;;;;;;1.58;1.00;;;22.40;55.30;;;;;;6299781;28;20051;-86
2022/09/13 04:08:34;;;;;;;2.60;1.38;;;22.50;55.20;;;;;;6278083;28;20124;-86
2022/09/13 04:11:36;;;;;;;6.00;1.40;;;22.50;55.00;;;;;;6265764;28;20036;-86
2022/09/13 04:14:37;;;;;;;3.00;1.45;;;22.50;55.00;;;;;;6257984;28;20063;-87
2022/09/13 04:17:38;;;;;;;7.15;1.63;;;22.50;55.00;;;;;;6279509;28;20418;-87
2022/09/13 04:20:39;;;;;;;9.23;1.58;;;22.50;55.00;;;;;;6273469;28;20116;-88
2022/09/13 04:23:40;;;;;;;4.70;1.35;;;22.50;55.00;;;;;;6269522;28;20029;-88
2022/09/13 04:26:42;;;;;;;3.85;1.38;;;22.50;55.00;;;;;;6275515;28;20052;-88
2022/09/13 04:29:43;;;;;;;1.80;1.10;;;22.50;55.00;;;;;;6269312;28;20454;-88
2022/09/13 04:32:44;;;;;;;12.27;1.80;;;22.50;55.10;;;;;;6255924;28;20065;-87
2022/09/13 04:35:45;;;;;;;5.35;1.08;;;22.40;55.20;;;;;;6247398;28;20520;-86
2022/09/13 04:38:46;;;;;;;5.90;1.20;;;22.40;55.40;;;;;;6282188;28;20401;-87
2022/09/13 04:41:50;;;;;;;2.10;1.23;;;22.30;55.50;;;;;;6263647;28;20377;-87
2022/09/13 04:44:51;;;;;;;2.22;1.20;;;22.30;55.60;;;;;;6271883;28;20381;-87
2022/09/13 04:47:53;;;;;;;3.80;1.20;;;22.20;55.70;;;;;;6276734;28;20043;-88
2022/09/13 04:51:03;;;;;;;2.88;1.10;;;22.20;55.70;;;;;;6279117;28;20035;-87
2022/09/13 04:54:05;;;;;;;5.38;1.33;;;22.30;55.60;;;;;;6292671;28;20040;-87
2022/09/13 04:57:06;;;;;;;1.30;1.20;;;22.30;55.60;;;;;;6291924;28;20392;-89
2022/09/13 05:00:08;;;;;;;2.78;1.70;;;22.30;55.40;;;;;;6291500;28;20148;-89
2022/09/13 05:03:10;;;;;;;7.00;1.35;;;22.30;55.30;;;;;;6274331;28;20098;-88
2022/09/13 05:06:14;;;;;;;11.93;1.42;;;22.40;55.20;;;;;;6271552;28;20355;-87
2022/09/13 05:09:15;;;;;;;3.60;1.20;;;22.40;55.10;;;;;;6281282;28;20369;-89
2022/09/13 05:12:16;;;;;;;1.40;1.08;;;22.40;55.00;;;;;;6286550;28;20033;-85
2022/09/13 05:15:17;;;;;;;5.03;1.30;;;22.40;54.90;;;;;;6310186;28;20052;-86
2022/09/13 05:18:19;;;;;;;1.60;1.10;;;22.30;55.00;;;;;;6261523;28;20045;-90
2022/09/13 05:21:20;;;;;;;3.15;1.27;;;22.30;55.00;;;;;;6287379;28;20037;-89
2022/09/13 05:24:21;;;;;;;4.00;1.48;;;22.30;55.00;;;;;;6269375;28;20028;-87
2022/09/13 05:27:22;;;;;;;1.25;1.08;;;22.30;55.60;;;;;;6282012;28;20071;-84
2022/09/13 05:30:23;;;;;;;1.73;1.40;;;22.30;55.00;;;;;;6273601;28;20041;-86
2022/09/13 05:33:27;;;;;;;8.73;1.33;;;22.30;55.00;;;;;;6274008;28;20041;-87
2022/09/13 05:36:28;;;;;;;4.50;1.00;;;22.30;55.10;;;;;;6287704;28;20824;-84
2022/09/13 05:39:29;;;;;;;7.47;1.23;;;22.40;55.10;;;;;;6295848;28;20040;-82
2022/09/13 05:42:31;;;;;;;7.82;1.10;;;22.30;54.90;;;;;;6236733;28;20378;-82
2022/09/13 05:45:32;;;;;;;3.85;1.02;;;22.50;54.90;;;;;;6295168;28;20484;-83
2022/09/13 05:48:34;;;;;;;3.38;1.10;;;22.50;54.80;;;;;;6297027;28;20532;-84
2022/09/13 05:51:36;;;;;;;1.17;0.95;;;22.50;54.70;;;;;;6264309;28;20036;-83
2022/09/13 05:54:38;;;;;;;3.20;1.38;;;22.50;54.60;;;;;;6302816;28;20504;-85
2022/09/13 05:57:39;;;;;;;4.07;1.20;;;22.60;54.60;;;;;;6254068;28;20154;-83
2022/09/13 06:00:40;;;;;;;2.92;1.23;;;22.60;54.50;;;;;;6249413;28;20120;-84
2022/09/13 06:03:41;;;;;;;3.42;1.27;;;22.70;54.40;;;;;;6246028;28;20047;-83
2022/09/13 06:06:43;;;;;;;4.75;1.48;;;22.70;54.40;;;;;;6285651;28;20068;-83
2022/09/13 06:09:44;;;;;;;1.65;1.30;;;22.70;54.40;;;;;;6289790;28;20041;-83
2022/09/13 06:12:46;;;;;;;4.75;1.10;;;22.80;54.40;;;;;;6270393;28;20080;-83
2022/09/13 06:15:47;;;;;;;10.82;1.10;;;22.80;54.30;;;;;;6274370;28;20028;-84
2022/09/13 06:18:48;;;;;;;5.85;1.33;;;22.80;54.20;;;;;;6296439;28;20056;-83
2022/09/13 06:21:49;;;;;;;2.72;1.33;;;22.80;54.20;;;;;;6255936;28;20129;-83
2022/09/13 06:24:50;;;;;;;5.15;1.40;;;22.90;54.20;;;;;;6268642;28;20507;-82
2022/09/13 06:27:52;;;;;;;3.10;1.92;;;22.90;54.20;;;;;;6256754;28;20044;-83
2022/09/13 06:31:03;;;;;;;5.38;1.55;;;22.90;54.30;;;;;;6257242;28;20029;-83
2022/09/13 06:34:04;;;;;;;7.90;1.65;;;22.80;54.80;;;;;;6290034;28;20037;-85
2022/09/13 06:37:06;;;;;;;10.43;2.55;;;22.80;54.10;;;;;;6292627;28;20124;-84
2022/09/13 06:40:08;;;;;;;5.00;1.73;;;22.80;54.20;;;;;;6295095;28;20071;-83
2022/09/13 06:43:11;;;;;;;9.32;1.48;;;22.90;54.20;;;;;;6295286;28;20044;-83
2022/09/13 06:46:14;;;;;;;6.07;1.60;;;22.90;54.10;;;;;;6294912;28;20105;-84
2022/09/13 06:49:15;;;;;;;6.97;1.70;;;22.90;53.90;;;;;;6286534;28;20049;-83
2022/09/13 06:52:16;;;;;;;5.25;1.80;;;22.90;53.70;;;;;;6266389;28;20381;-83
2022/09/13 06:55:17;;;;;;;5.32;2.10;;;22.90;53.70;;;;;;6266923;28;20029;-83
2022/09/13 06:58:18;;;;;;;5.43;1.48;;;22.90;53.60;;;;;;6271524;28;20041;-83
2022/09/13 07:01:24;;;;;;;5.88;1.73;;;23.00;53.40;;;;;;6254515;28;20048;-84
2022/09/13 07:04:30;;;;;;;5.43;1.63;;;23.00;53.20;;;;;;6250344;28;20064;-85
2022/09/13 07:07:31;;;;;;;6.15;1.77;;;23.10;52.80;;;;;;6264805;28;20037;-84
2022/09/13 07:10:34;;;;;;;3.20;1.30;;;23.20;52.70;;;;;;6294844;28;20032;-84
2022/09/13 07:13:35;;;;;;;3.63;1.50;;;23.20;52.50;;;;;;6288593;28;20028;-84
2022/09/13 07:16:39;;;;;;;6.63;1.63;;;23.30;52.50;;;;;;6293128;28;20035;-82
2022/09/13 07:19:40;;;;;;;17.95;1.75;;;23.30;52.20;;;;;;6261011;28;20108;-86
2022/09/13 07:22:41;;;;;;;2.90;1.17;;;23.40;52.00;;;;;;6267536;28;20461;-84
2022/09/13 07:25:42;;;;;;;4.97;1.65;;;23.40;51.80;;;;;;6259168;28;20055;-83
2022/09/13 07:28:45;;;;;;;4.50;1.35;;;23.40;51.80;;;;;;6240610;28;20174;-83
2022/09/13 07:31:49;;;;;;;2.75;1.50;;;23.50;51.80;;;;;;6246759;28;20041;-83
2022/09/13 07:34:50;;;;;;;7.53;1.75;;;23.50;51.70;;;;;;6273257;28;20454;-83
2022/09/13 07:37:51;;;;;;;9.25;1.60;;;23.60;51.60;;;;;;6271855;28;20037;-83
2022/09/13 07:40:58;;;;;;;5.35;1.27;;;23.70;51.30;;;;;;6281999;28;20146;-83
2022/09/13 07:44:00;;;;;;;8.27;1.30;;;23.70;51.00;;;;;;6300476;28;20119;-83
2022/09/13 07:47:01;;;;;;;14.77;1.45;;;23.80;50.90;;;;;;6303751;28;20064;-83
2022/09/13 07:50:02;;;;;;;4.75;2.08;;;23.80;50.80;;;;;;6305835;28;20120;-83
2022/09/13 07:53:04;;;;;;;7.70;2.10;;;23.90;50.80;;;;;;6300115;28;20037;-84
2022/09/13 07:56:07;;;;;;;3.55;1.63;;;24.00;50.80;;;;;;6302938;28;20484;-85
2022/09/13 07:59:14;;;;;;;3.28;1.77;;;24.00;50.60;;;;;;6296498;28;20412;-83
2022/09/13 08:02:16;;;;;;;7.05;1.50;;;24.10;50.60;;;;;;6298173;28;20051;-84
2022/09/13 08:05:17;;;;;;;3.75;1.50;;;24.20;50.50;;;;;;6298635;28;20041;-84
2022/09/13 08:08:19;;;;;;;13.57;1.58;;;24.30;50.30;;;;;;6297431;28;20070;-84
2022/09/13 08:11:26;;;;;;;10.80;1.60;;;24.40;49.90;;;;;;6279831;28;20134;-85
2022/09/13 08:14:28;;;;;;;5.63;1.60;;;24.50;49.70;;;;;;6307004;28;21145;-83
2022/09/13 08:17:29;;;;;;;4.30;1.52;;;24.60;49.80;;;;;;6280266;28;20051;-84
2022/09/13 08:20:30;;;;;;;5.40;1.58;;;24.70;49.70;;;;;;6297957;28;20035;-85
2022/09/13 08:23:32;;;;;;;6.38;1.60;;;24.80;49.50;;;;;;6297959;28;20036;-84
2022/09/13 08:26:35;;;;;;;3.03;1.67;;;25.00;49.30;;;;;;6296076;28;20036;-84
2022/09/13 08:29:36;;;;;;;7.90;1.73;;;25.10;49.00;;;;;;6276978;28;20035;-83
2022/09/13 08:32:37;;;;;;;8.52;1.73;;;25.30;48.70;;;;;;6297543;28;20041;-83
2022/09/13 08:35:38;;;;;;;7.35;1.83;;;25.40;48.20;;;;;;6280621;28;20041;-85
2022/09/13 08:38:51;;;;;;;5.57;1.33;;;25.50;48.00;;;;;;6295728;28;20572;-84
2022/09/13 08:42:14;;;;;;;2.05;1.10;;;25.70;47.90;;;;;;6273427;28;20637;-84
2022/09/13 08:45:15;;;;;;;4.68;1.42;;;25.80;47.30;;;;;;6286237;28;20080;-83
2022/09/13 08:48:21;;;;;;;4.10;1.90;;;26.00;46.60;;;;;;6303275;28;20349;-85
2022/09/13 08:51:33;;;;;;;12.43;4.60;;;26.10;46.10;;;;;;6279949;28;20033;-84
2022/09/13 08:54:35;;;;;;;11.30;2.00;;;26.20;45.70;;;;;;6286276;28;20071;-84
2022/09/13 08:57:53;;;;;;;5.28;2.50;;;26.30;45.20;;;;;;6274011;28;20033;-84
2022/09/13 09:01:11;;;;;;;8.05;3.80;;;26.40;45.10;;;;;;6250060;28;20037;-84
2022/09/13 09:04:42;;;;;;;15.35;5.93;;;26.50;44.80;;;;;;6265308;28;20040;-84
2022/09/13 09:07:55;;;;;;;22.73;5.10;;;26.60;44.70;;;;;;6250445;28;20057;-83
2022/09/13 09:11:01;;;;;;;6.75;1.65;;;26.70;44.60;;;;;;6284943;28;20039;-85
2022/09/13 09:14:16;;;;;;;7.28;2.00;;;26.80;44.50;;;;;;6291708;28;20040;-85
2022/09/13 09:17:24;;;;;;;6.85;1.73;;;26.80;44.30;;;;;;6275799;28;20095;-84
2022/09/13 09:20:52;;;;;;;22.45;7.93;;;26.70;44.20;;;;;;6275556;28;20143;-83
2022/09/13 09:23:54;;;;;;;19.67;5.68;;;27.00;44.10;;;;;;6265760;28;20028;-83
2022/09/13 09:26:57;;;;;;;12.32;2.20;;;27.00;43.80;;;;;;6278496;28;20048;-85
2022/09/13 09:29:58;;;;;;;7.40;1.95;;;27.10;43.60;;;;;;6276732;28;20044;-83
2022/09/13 09:33:23;;;;;;;5.93;3.10;;;27.10;43.70;;;;;;6264818;28;20037;-83
2022/09/13 09:36:24;;;;;;;6.70;3.10;;;27.20;43.60;;;;;;6263189;28;20431;-84
2022/09/13 09:39:31;;;;;;;11.52;2.38;;;27.20;44.20;;;;;;6271118;28;20110;-84
2022/09/13 09:42:40;;;;;;;11.47;3.30;;;27.30;43.50;;;;;;6268593;28;20147;-83
2022/09/13 09:45:45;;;;;;;15.50;6.38;;;27.50;43.40;;;;;;6268359;28;20101;-84
2022/09/13 09:49:01;;;;;;;6.53;2.28;;;27.70;43.30;;;;;;6275777;28;20132;-85
2022/09/13 09:52:06;;;;;;;12.82;4.00;;;27.90;43.10;;;;;;6288492;28;20106;-84
2022/09/13 09:55:19;;;;;;;13.25;6.63;;;28.00;42.70;;;;;;6294436;28;20036;-84
2022/09/13 09:58:45;;;;;;;12.45;2.05;;;28.10;42.70;;;;;;6272197;28;20033;-85
2022/09/13 10:01:47;;;;;;;5.13;1.77;;;28.20;42.70;;;;;;6275420;28;20055;-84
2022/09/13 10:04:56;;;;;;;5.28;1.60;;;28.30;42.50;;;;;;6297466;28;20041;-84
2022/09/13 10:08:19;;;;;;;13.38;1.15;;;28.40;42.30;;;;;;6290143;28;20597;-83
2022/09/13 10:11:21;;;;;;;5.57;1.70;;;28.40;42.10;;;;;;6294165;28;20147;-83
2022/09/13 10:14:48;;;;;;;2.30;1.45;;;28.50;42.10;;;;;;6277402;28;20047;-84
2022/09/13 10:18:15;;;;;;;6.63;1.73;;;28.50;42.10;;;;;;6275426;28;20092;-84
2022/09/13 10:21:21;;;;;;;14.07;1.65;;;28.60;42.10;;;;;;6272764;28;20036;-83
2022/09/13 10:24:23;;;;;;;6.05;2.15;;;28.60;41.90;;;;;;6266261;28;20029;-84
2022/09/13 10:27:33;;;;;;;11.30;1.58;;;28.70;41.70;;;;;;6258220;28;20474;-84
2022/09/13 10:30:44;;;;;;;3.97;1.60;;;28.80;41.30;;;;;;6257898;28;20033;-84
2022/09/13 10:33:45;;;;;;;5.30;1.30;;;28.90;41.10;;;;;;6262519;28;20037;-85
2022/09/13 10:36:55;;;;;;;3.75;1.30;;;29.00;40.70;;;;;;6247910;28;20106;-84
2022/09/13 10:40:07;;;;;;;1.95;1.00;;;29.20;40.30;;;;;;6266631;28;20052;-85
2022/09/13 10:43:18;;;;;;;5.85;1.40;;;29.40;40.00;;;;;;6294456;28;20512;-86
2022/09/13 10:46:22;;;;;;;2.22;1.50;;;29.60;39.60;;;;;;6299061;28;20037;-84
2022/09/13 10:49:47;;;;;;;4.03;1.73;;;29.80;39.30;;;;;;6292112;28;20394;-84
2022/09/13 10:52:53;;;;;;;10.55;1.60;;;29.90;38.90;;;;;;6299788;28;20047;-84
2022/09/13 10:55:54;;;;;;;5.72;1.27;;;30.00;38.50;;;;;;6254328;28;20033;-84
2022/09/13 10:59:23;;;;;;;6.40;1.80;;;30.00;38.30;;;;;;6280467;28;20047;-84
2022/09/13 11:03:15;;;;;;;5.97;1.30;;;30.10;38.20;;;;;;6260870;28;20052;-84
2022/09/13 11:06:29;;;;;;;5.97;1.27;;;30.00;38.00;;;;;;6289338;28;20055;-83
2022/09/13 11:09:37;;;;;;;4.60;1.52;;;30.00;37.90;;;;;;6270804;28;20042;-84
2022/09/13 11:13:25;;;;;;;1.80;1.10;;;30.10;37.80;;;;;;6260756;28;20699;-83
2022/09/13 11:17:03;;;;;;;3.53;1.20;;;30.20;37.60;;;;;;6239694;28;20033;-85
2022/09/13 11:20:12;;;;;;;5.47;1.70;;;30.30;37.40;;;;;;6252140;28;20450;-84
2022/09/13 11:23:25;;;;;;;6.57;1.42;;;30.30;37.20;;;;;;6237883;28;20041;-83
2022/09/13 11:26:44;;;;;;;4.05;1.55;;;30.30;37.40;;;;;;6242882;28;20041;-85
2022/09/13 11:30:03;;;;;;;9.20;1.95;;;30.30;37.50;;;;;;6246953;28;20040;-85
2022/09/13 11:33:26;;;;;;;12.45;1.63;;;30.30;37.50;;;;;;6223154;28;20342;-85
2022/09/13 11:36:36;;;;;;;3.63;1.42;;;30.40;37.60;;;;;;6212322;28;20103;-84
2022/09/13 11:39:41;;;;;;;4.20;1.30;;;30.60;37.70;;;;;;6253960;28;20033;-84
2022/09/13 11:43:08;;;;;;;5.28;1.73;;;30.70;37.40;;;;;;6262087;28;20037;-84
2022/09/13 11:46:33;;;;;;;10.95;1.45;;;30.90;37.10;;;;;;6236993;28;20369;-84
2022/09/13 11:49:49;;;;;;;6.65;1.30;;;31.00;37.00;;;;;;6271889;28;20066;-84
2022/09/13 11:53:09;;;;;;;13.80;1.77;;;31.20;36.70;;;;;;6287330;28;20035;-83
2022/09/13 11:56:15;;;;;;;9.85;1.45;;;31.40;36.50;;;;;;6259457;28;20393;-83
2022/09/13 11:59:19;;;;;;;2.28;1.33;;;31.60;36.10;;;;;;6274553;28;20143;-84
2022/09/13 12:02:29;;;;;;;12.63;1.75;;;31.90;35.70;;;;;;6280338;28;20504;-82
2022/09/13 12:05:40;;;;;;;7.68;1.60;;;32.30;35.30;;;;;;6254124;28;20048;-83
2022/09/13 12:08:48;;;;;;;5.45;1.30;;;32.80;34.60;;;;;;6291521;28;20082;-83
2022/09/13 12:12:09;;;;;;;10.73;1.73;;;33.20;33.70;;;;;;6283429;28;20112;-83
2022/09/13 12:15:41;;;;;;;11.13;1.50;;;33.30;33.30;;;;;;6288162;28;20044;-84
2022/09/13 12:18:47;;;;;;;5.45;1.00;;;33.30;33.10;;;;;;6288980;28;20117;-84
2022/09/13 12:21:50;;;;;;;4.40;1.30;;;33.40;33.00;;;;;;6297802;28;20507;-82
2022/09/13 12:24:55;;;;;;;3.08;1.23;;;33.40;33.00;;;;;;6284539;28;20377;-84
2022/09/13 12:28:01;;;;;;;6.60;1.42;;;33.50;33.00;;;;;;6304764;28;20154;-83
2022/09/13 12:31:41;;;;;;;4.97;1.50;;;33.70;32.80;;;;;;6299471;28;20036;-81
2022/09/13 12:34:58;;;;;;;7.93;1.33;;;34.30;32.30;;;;;;6249496;28;20041;-82
2022/09/13 12:38:10;;;;;;;3.20;1.40;;;34.90;31.40;;;;;;6259387;28;20604;-81
2022/09/13 12:41:22;;;;;;;14.70;1.38;;;35.20;31.10;;;;;;6265022;28;20465;-82
2022/09/13 12:44:30;;;;;;;6.32;1.30;;;35.30;30.90;;;;;;6266340;28;20044;-82
2022/09/13 12:47:55;;;;;;;6.45;1.50;;;35.30;31.00;;;;;;6254655;28;20439;-81
2022/09/13 12:51:17;;;;;;;4.47;1.27;;;35.20;31.20;;;;;;6240743;28;20040;-81
2022/09/13 12:54:37;;;;;;;9.40;1.55;;;35.20;31.30;;;;;;6225654;28;20049;-81
2022/09/13 12:57:58;;;;;;;7.30;1.20;;;35.10;31.40;;;;;;6263279;28;20560;-81
2022/09/13 13:01:21;;;;;;;10.02;1.65;;;35.20;31.30;;;;;;6237319;28;20095;-81
2022/09/13 13:04:34;;;;;;;6.60;1.40;;;35.20;31.30;;;;;;6233406;28;20033;-82
2022/09/13 13:07:37;;;;;;;7.18;1.25;;;35.30;31.10;;;;;;6239664;28;20103;-81
2022/09/13 13:10:38;;;;;;;4.03;1.50;;;35.50;30.90;;;;;;6215634;28;20422;-82
2022/09/13 13:13:43;;;;;;;7.03;1.27;;;35.80;30.60;;;;;;6218070;28;20034;-82
2022/09/13 13:16:47;;;;;;;5.35;1.40;;;36.10;30.10;;;;;;6240819;28;20327;-81
2022/09/13 13:19:48;;;;;;;12.73;1.60;;;36.30;29.90;;;;;;6235557;28;20066;-81
2022/09/13 13:22:51;;;;;;;4.78;1.55;;;36.20;29.90;;;;;;6211685;28;20030;-83
2022/09/13 13:26:16;;;;;;;9.63;2.88;;;36.00;30.10;;;;;;6192722;28;20141;-83
2022/09/13 13:29:31;;;;;;;5.80;1.83;;;35.80;30.00;;;;;;6241210;28;20033;-82
2022/09/13 13:32:33;;;;;;;5.45;1.48;;;35.40;30.30;;;;;;6212141;28;20073;-82
2022/09/13 13:35:34;;;;;;;9.40;1.55;;;35.10;31.50;;;;;;6201469;28;20038;-81
2022/09/13 13:38:40;;;;;;;3.95;1.30;;;34.80;31.30;;;;;;6246979;28;20048;-82
2022/09/13 13:41:51;;;;;;;4.93;1.55;;;34.60;31.60;;;;;;6243225;28;20037;-81
2022/09/13 13:44:52;;;;;;;11.27;1.70;;;34.30;31.90;;;;;;6283084;28;20040;-82
2022/09/13 13:47:55;;;;;;;7.38;1.50;;;34.20;32.10;;;;;;6253204;28;20565;-81
2022/09/13 13:51:23;;;;;;;7.30;1.63;;;34.20;32.20;;;;;;6262212;28;20048;-80
2022/09/13 13:54:30;;;;;;;11.25;1.63;;;34.10;32.40;;;;;;6297694;28;20107;-81
2022/09/13 13:57:55;;;;;;;8.07;1.10;;;34.10;32.40;;;;;;6256731;28;20166;-83
2022/09/13 14:00:59;;;;;;;7.05;1.48;;;34.00;32.60;;;;;;6247624;28;20037;-81
2022/09/13 14:04:40;;;;;;;15.80;1.67;;;34.00;32.60;;;;;;6236316;28;20503;-83
2022/09/13 14:08:09;;;;;;;3.47;1.58;;;34.10;32.70;;;;;;6223745;28;20034;-81
2022/09/13 14:11:47;;;;;;;6.65;1.42;;;34.20;32.50;;;;;;6222596;28;20076;-83
2022/09/13 14:14:50;;;;;;;10.43;1.65;;;34.20;32.40;;;;;;6172141;28;20038;-82
2022/09/13 14:18:12;;;;;;;12.30;1.80;;;34.30;32.20;;;;;;6149562;28;20387;-82
2022/09/13 14:21:25;;;;;;;25.50;2.72;;;34.20;31.80;;;;;;6151415;28;20039;-81
2022/09/13 14:24:26;;;;;;;29.05;2.40;;;34.30;32.00;;;;;;6176291;28;20231;-81
2022/09/13 14:27:36;;;;;;;27.52;2.28;;;34.10;31.90;;;;;;6181648;28;20083;-82
2022/09/13 14:30:38;;;;;;;8.52;2.13;;;33.90;32.00;;;;;;6151983;28;20038;-83
2022/09/13 14:33:39;;;;;;;43.60;2.45;;;33.70;32.40;;;;;;6182913;28;20035;-83
2022/09/13 14:36:52;;;;;;;7.50;2.28;;;33.40;32.80;;;;;;6150485;28;20055;-81
2022/09/13 14:40:16;;;;;;;9.50;3.97;;;33.10;33.20;;;;;;6140798;28;20039;-82
2022/09/13 14:43:22;;;;;;;18.88;2.25;;;32.90;33.50;;;;;;6122948;28;20039;-81
2022/09/13 14:46:30;;;;;;;7.00;2.42;;;32.60;33.80;;;;;;6143297;28;20506;-82
2022/09/13 14:49:36;;;;;;;5.28;1.52;;;32.40;34.20;;;;;;6150448;28;20049;-81
2022/09/13 14:52:50;;;;;;;18.92;2.97;;;32.20;34.50;;;;;;6253110;28;20034;-85
2022/09/13 14:56:00;;;;;;;10.65;2.65;;;32.00;34.90;;;;;;6261036;28;20033;-83
2022/09/13 14:59:05;;;;;;;7.93;2.13;;;31.90;35.20;;;;;;6243335;28;20421;-83
2022/09/13 15:02:36;;;;;;;5.38;2.08;;;31.70;35.40;;;;;;6287268;28;20059;-83
2022/09/13 15:05:38;;;;;;;6.53;1.63;;;31.60;35.80;;;;;;6278075;28;20332;-84
2022/09/13 15:08:43;;;;;;;4.80;1.70;;;31.60;35.90;;;;;;6257809;28;20125;-82
2022/09/13 15:11:51;;;;;;;7.55;2.83;;;31.50;36.00;;;;;;6274681;28;20063;-82
2022/09/13 15:15:25;;;;;;;4.27;1.83;;;31.50;36.10;;;;;;6264240;28;20041;-86
2022/09/13 15:18:30;;;;;;;7.68;1.85;;;31.40;36.20;;;;;;6285649;28;20077;-83
2022/09/13 15:21:35;;;;;;;6.95;1.80;;;31.50;36.40;;;;;;6294349;28;20326;-84
2022/09/13 15:24:41;;;;;;;2.60;1.25;;;31.40;36.50;;;;;;6295891;28;20029;-83
2022/09/13 15:27:44;;;;;;;5.03;1.90;;;31.30;36.60;;;;;;6291547;28;20373;-81
2022/09/13 15:30:45;;;;;;;6.38;1.30;;;31.30;36.70;;;;;;6299372;28;20139;-83
2022/09/13 15:33:46;;;;;;;6.80;1.55;;;31.20;36.90;;;;;;6268763;28;20044;-84
2022/09/13 15:37:09;;;;;;;3.92;1.40;;;31.10;37.10;;;;;;6276754;28;20049;-82
2022/09/13 15:40:20;;;;;;;12.48;1.63;;;31.00;37.50;;;;;;6281719;28;20094;-82
2022/09/13 15:43:21;;;;;;;2.42;1.60;;;31.00;37.60;;;;;;6272970;28;20056;-83
2022/09/13 15:46:22;;;;;;;5.43;1.60;;;30.90;37.70;;;;;;6294042;28;20096;-81
2022/09/13 15:49:26;;;;;;;4.10;1.65;;;30.90;37.90;;;;;;6288249;28;20032;-83
2022/09/13 15:52:27;;;;;;;4.63;1.52;;;30.80;38.20;;;;;;6262014;28;20030;-84
2022/09/13 15:55:30;;;;;;;12.05;1.75;;;30.80;38.40;;;;;;6263359;28;20037;-82
2022/09/13 15:58:32;;;;;;;8.93;2.20;;;30.80;38.60;;;;;;6252247;28;20048;-82
2022/09/13 16:01:33;;;;;;;9.60;3.35;;;30.70;38.60;;;;;;6286209;28;20037;-86
2022/09/13 16:04:35;;;;;;;11.02;3.67;;;30.70;38.70;;;;;;6304637;28;20422;-85
2022/09/13 16:07:36;;;;;;;9.85;3.08;;;30.70;38.80;;;;;;6292748;28;20033;-85
2022/09/13 16:10:37;;;;;;;8.85;2.50;;;30.70;38.80;;;;;;6302844;28;20098;-84
2022/09/13 16:13:38;;;;;;;8.73;2.13;;;30.70;39.00;;;;;;6275189;28;20039;-86
2022/09/13 16:16:41;;;;;;;8.27;2.72;;;30.70;39.10;;;;;;6291118;28;20444;-84
2022/09/13 16:19:42;;;;;;;11.73;2.75;;;30.70;39.30;;;;;;6299572;28;20032;-86
2022/09/13 16:22:44;;;;;;;18.38;8.38;;;30.70;39.40;;;;;;6297863;28;20040;-84